createdAt,value
2022-09-30T00:00:15.104Z,3.53
2022-09-30T00:02:42.696Z,3.58
2022-09-30T00:05:10.319Z,3.72
2022-09-30T00:07:37.872Z,4.30
2022-09-30T00:10:07.117Z,3.70
2022-09-30T00:12:35.021Z,3.58
2022-09-30T00:15:04.051Z,3.42
2022-09-30T00:17:31.660Z,3.63
2022-09-30T00:19:59.203Z,3.70
2022-09-30T00:22:26.752Z,3.75
2022-09-30T00:24:54.297Z,3.70
2022-09-30T00:27:21.892Z,3.60
2022-09-30T00:29:49.640Z,3.28
2022-09-30T00:32:18.531Z,3.67
2022-09-30T00:34:46.129Z,3.40
2022-09-30T00:37:15.185Z,4.05
2022-09-30T00:39:42.805Z,3.13
2022-09-30T00:42:13.061Z,3.30
2022-09-30T00:44:50.738Z,3.60
2022-09-30T00:47:27.016Z,3.70
2022-09-30T00:49:54.673Z,3.50
2022-09-30T00:52:22.269Z,3.22
2022-09-30T00:54:51.284Z,3.58
2022-09-30T00:57:18.959Z,3.80
2022-09-30T00:59:47.739Z,3.45
2022-09-30T01:02:15.598Z,3.80
2022-09-30T01:04:45.651Z,3.58
2022-09-30T01:07:14.449Z,3.72
2022-09-30T01:09:42.532Z,3.95
2022-09-30T01:12:13.175Z,3.30
2022-09-30T01:14:41.498Z,3.30
2022-09-30T01:17:11.765Z,3.65
2022-09-30T01:19:55.353Z,3.40
2022-09-30T01:22:26.405Z,3.60
2022-09-30T01:25:12.706Z,3.45
2022-09-30T01:27:48.411Z,3.15
2022-09-30T01:30:18.294Z,3.75
2022-09-30T01:32:50.411Z,3.63
2022-09-30T01:35:22.697Z,3.35
2022-09-30T01:37:53.802Z,3.30
2022-09-30T01:40:23.748Z,3.60
2022-09-30T01:42:54.494Z,3.35
2022-09-30T01:45:30.309Z,3.80
2022-09-30T01:48:01.357Z,3.03
2022-09-30T01:50:30.742Z,4.18
2022-09-30T01:53:03.416Z,3.50
2022-09-30T01:55:32.870Z,3.80
2022-09-30T01:58:02.777Z,3.58
2022-09-30T02:00:32.425Z,3.42
2022-09-30T02:03:03.485Z,3.75
2022-09-30T02:05:36.523Z,3.78
2022-09-30T02:08:06.011Z,3.50
2022-09-30T02:10:34.869Z,3.40
2022-09-30T02:13:05.423Z,3.95
2022-09-30T02:15:40.220Z,3.83
2022-09-30T02:18:12.600Z,3.70
2022-09-30T02:20:42.026Z,3.25
2022-09-30T02:23:13.560Z,3.55
2022-09-30T02:25:43.741Z,3.63
2022-09-30T02:28:12.904Z,3.90
2022-09-30T02:30:43.045Z,3.97
2022-09-30T02:33:12.924Z,3.58
2022-09-30T02:35:44.452Z,3.50
2022-09-30T02:38:14.789Z,3.67
2022-09-30T02:40:43.473Z,3.83
2022-09-30T02:43:11.549Z,3.58
2022-09-30T02:45:42.105Z,3.95
2022-09-30T02:48:16.489Z,3.92
2022-09-30T02:50:47.743Z,4.07
2022-09-30T02:53:19.261Z,4.07
2022-09-30T02:55:54.632Z,3.53
2022-09-30T02:58:25.949Z,3.55
2022-09-30T03:00:54.895Z,3.65
2022-09-30T03:03:25.649Z,3.83
2022-09-30T03:05:53.395Z,3.70
2022-09-30T03:08:20.942Z,3.83
2022-09-30T03:10:50.866Z,3.85
2022-09-30T03:13:33.321Z,4.13
2022-09-30T03:16:13.136Z,3.67
2022-09-30T03:18:57.058Z,4.10
2022-09-30T03:21:34.157Z,4.15
2022-09-30T03:24:13.629Z,3.65
2022-09-30T03:26:44.418Z,4.38
2022-09-30T03:29:15.107Z,3.80
2022-09-30T03:31:48.967Z,4.05
2022-09-30T03:34:21.689Z,4.20
2022-09-30T03:36:53.180Z,4.50
2022-09-30T03:39:23.972Z,4.07
2022-09-30T03:41:54.173Z,3.70
2022-09-30T03:44:23.211Z,4.18
2022-09-30T03:46:53.131Z,4.15
2022-09-30T03:49:24.269Z,4.47
2022-09-30T03:51:52.017Z,4.13
2022-09-30T03:54:19.583Z,5.22
2022-09-30T03:56:47.158Z,4.28
2022-09-30T03:59:20.812Z,4.38
2022-09-30T04:01:48.414Z,4.10
2022-09-30T04:04:16.112Z,4.22
2022-09-30T04:06:45.024Z,4.72
2022-09-30T04:09:12.686Z,3.65
2022-09-30T04:11:40.321Z,3.90
2022-09-30T04:14:07.863Z,3.90
2022-09-30T04:16:35.545Z,3.83
2022-09-30T04:19:03.164Z,4.75
2022-09-30T04:21:30.968Z,4.60
2022-09-30T04:23:59.916Z,4.18
2022-09-30T04:26:27.503Z,4.32
2022-09-30T04:28:58.173Z,4.50
2022-09-30T04:31:26.144Z,4.65
2022-09-30T04:33:53.876Z,4.82
2022-09-30T04:36:21.424Z,5.72
2022-09-30T04:38:49.013Z,4.50
2022-09-30T04:41:18.023Z,4.25
2022-09-30T04:43:46.941Z,5.30
2022-09-30T04:46:14.769Z,5.10
2022-09-30T04:48:45.666Z,4.97
2022-09-30T04:51:14.013Z,4.85
2022-09-30T04:53:42.237Z,4.40
2022-09-30T04:56:09.905Z,4.68
2022-09-30T04:58:38.893Z,4.72
2022-09-30T05:01:07.956Z,4.95
2022-09-30T05:03:35.834Z,5.18
2022-09-30T05:06:04.251Z,5.20
2022-09-30T05:08:32.230Z,5.07
2022-09-30T05:11:01.040Z,5.10
2022-09-30T05:13:31.778Z,5.10
2022-09-30T05:16:01.217Z,4.70
2022-09-30T05:18:29.176Z,4.75
2022-09-30T05:20:57.838Z,5.00
2022-09-30T05:23:25.847Z,5.45
2022-09-30T05:25:53.433Z,5.43
2022-09-30T05:28:21.457Z,5.22
2022-09-30T05:30:49.967Z,5.15
2022-09-30T05:33:18.842Z,5.07
2022-09-30T05:35:46.421Z,5.30
2022-09-30T05:38:13.930Z,5.53
2022-09-30T05:40:41.701Z,4.97
2022-09-30T05:43:09.468Z,5.80
2022-09-30T05:45:38.384Z,5.75
2022-09-30T05:48:06.953Z,6.18
2022-09-30T05:50:35.868Z,5.88
2022-09-30T05:53:03.454Z,5.22
2022-09-30T05:55:33.665Z,5.90
2022-09-30T05:58:03.377Z,5.82
2022-09-30T06:00:30.953Z,5.63
2022-09-30T06:02:58.951Z,5.97
2022-09-30T06:05:26.582Z,6.03
2022-09-30T06:07:55.504Z,5.55
2022-09-30T06:10:24.136Z,5.18
2022-09-30T06:12:51.884Z,5.70
2022-09-30T06:15:19.696Z,5.88
2022-09-30T06:17:52.767Z,5.25
2022-09-30T06:20:20.375Z,5.68
2022-09-30T06:22:48.138Z,5.63
2022-09-30T06:25:17.176Z,5.45
2022-09-30T06:27:45.625Z,5.82
2022-09-30T06:30:13.400Z,6.35
2022-09-30T06:32:40.990Z,5.93
2022-09-30T06:35:10.089Z,5.30
2022-09-30T06:37:37.952Z,5.55
2022-09-30T06:40:06.161Z,6.30
2022-09-30T06:42:35.149Z,6.85
2022-09-30T06:45:02.733Z,6.13
2022-09-30T06:47:33.282Z,5.90
2022-09-30T06:50:02.392Z,5.85
2022-09-30T06:52:29.923Z,6.05
2022-09-30T06:54:57.540Z,6.63
2022-09-30T06:57:27.610Z,5.97
2022-09-30T06:59:56.816Z,6.60
2022-09-30T07:02:24.393Z,6.03
2022-09-30T07:04:52.015Z,6.07
2022-09-30T07:07:22.233Z,6.18
2022-09-30T07:09:49.887Z,6.38
2022-09-30T07:12:17.746Z,6.45
2022-09-30T07:14:45.366Z,6.65
2022-09-30T07:17:14.269Z,6.38
2022-09-30T07:19:41.838Z,7.30
2022-09-30T07:22:26.901Z,6.22
2022-09-30T07:24:54.598Z,6.90
2022-09-30T07:27:22.437Z,7.40
2022-09-30T07:30:08.202Z,6.95
2022-09-30T07:32:39.341Z,7.90
2022-09-30T07:35:07.307Z,6.57
2022-09-30T07:37:36.191Z,6.20
2022-09-30T07:40:05.514Z,5.93
2022-09-30T07:42:33.139Z,7.10
2022-09-30T07:45:01.096Z,6.32
2022-09-30T07:47:28.643Z,7.78
2022-09-30T07:49:57.813Z,6.25
2022-09-30T07:52:25.423Z,5.78
2022-09-30T07:54:52.983Z,5.88
2022-09-30T07:57:21.616Z,5.97
2022-09-30T07:59:49.175Z,5.68
2022-09-30T08:02:17.746Z,5.72
2022-09-30T08:04:45.844Z,6.47
2022-09-30T08:07:15.500Z,6.50
2022-09-30T08:09:43.211Z,6.32
2022-09-30T08:12:10.867Z,5.05
2022-09-30T08:14:38.516Z,5.10
2022-09-30T08:17:06.271Z,4.10
2022-09-30T08:19:34.705Z,5.78
2022-09-30T08:24:37.201Z,5.57
2022-09-30T08:27:05.173Z,5.82
2022-09-30T08:32:20.500Z,4.72
2022-09-30T08:34:48.176Z,5.55
2022-09-30T08:37:15.765Z,5.18
2022-09-30T08:39:46.758Z,3.13
2022-09-30T08:42:37.427Z,5.03
2022-09-30T08:45:12.527Z,4.90
2022-09-30T08:47:46.403Z,4.32
2022-09-30T08:50:16.915Z,4.10
2022-09-30T08:52:49.815Z,4.10
2022-09-30T08:55:21.468Z,4.55
2022-09-30T08:57:49.049Z,4.18
2022-09-30T09:00:18.568Z,4.63
2022-09-30T09:02:47.186Z,5.10
2022-09-30T09:05:18.735Z,3.70
2022-09-30T09:07:49.990Z,3.50
2022-09-30T09:10:25.697Z,3.80
2022-09-30T09:12:57.355Z,4.38
2022-09-30T09:15:33.561Z,4.25
2022-09-30T09:18:23.101Z,4.93
2022-09-30T09:20:54.956Z,4.13
2022-09-30T09:23:23.172Z,4.30
2022-09-30T09:25:54.637Z,3.40
2022-09-30T09:28:31.135Z,2.50
2022-09-30T09:31:00.028Z,4.22
2022-09-30T09:33:30.713Z,2.75
2022-09-30T09:36:06.324Z,3.42
2022-09-30T09:38:37.826Z,3.53
2022-09-30T09:41:13.892Z,3.58
2022-09-30T09:43:48.316Z,3.30
2022-09-30T09:46:19.065Z,2.90
2022-09-30T09:48:46.887Z,3.67
2022-09-30T09:51:20.615Z,2.10
2022-09-30T09:53:52.918Z,2.53
2022-09-30T09:56:22.573Z,2.70
2022-09-30T09:59:10.713Z,2.88
2022-09-30T10:01:39.814Z,2.60
2022-09-30T10:04:09.685Z,1.92
2022-09-30T10:06:47.817Z,0.88
2022-09-30T10:09:27.004Z,0.45
2022-09-30T10:12:18.293Z,1.67
2022-09-30T10:14:50.325Z,2.38
2022-09-30T10:17:20.074Z,1.38
2022-09-30T10:19:51.548Z,0.95
2022-09-30T10:22:19.780Z,2.65
2022-09-30T10:24:47.377Z,2.20
2022-09-30T10:27:29.430Z,1.25
2022-09-30T10:29:57.153Z,2.10
2022-09-30T10:32:25.920Z,2.08
2022-09-30T10:34:56.372Z,2.25
2022-09-30T10:37:25.115Z,2.05
2022-09-30T10:39:56.309Z,2.80
2022-09-30T10:42:26.588Z,0.85
2022-09-30T10:44:56.893Z,0.70
2022-09-30T10:47:26.251Z,0.75
2022-09-30T10:49:56.429Z,2.10
2022-09-30T10:52:25.832Z,1.65
2022-09-30T10:54:54.833Z,0.95
2022-09-30T10:57:24.519Z,0.73
2022-09-30T10:59:53.888Z,2.00
2022-09-30T11:02:27.681Z,2.42
2022-09-30T11:05:00.300Z,0.57
2022-09-30T11:07:30.788Z,1.48
2022-09-30T11:10:01.711Z,1.60
2022-09-30T11:12:32.602Z,1.48
2022-09-30T11:15:04.469Z,1.80
2022-09-30T11:17:38.015Z,2.25
2022-09-30T11:20:10.901Z,2.45
2022-09-30T11:22:43.017Z,1.15
2022-09-30T11:25:13.637Z,0.65
2022-09-30T11:27:49.362Z,2.40
2022-09-30T11:30:20.127Z,2.08
2022-09-30T11:33:01.902Z,0.55
2022-09-30T11:35:33.753Z,0.88
2022-09-30T11:38:05.598Z,1.23
2022-09-30T11:40:37.688Z,0.68
2022-09-30T11:43:09.383Z,1.20
2022-09-30T11:45:42.363Z,0.40
2022-09-30T11:48:20.032Z,1.90
2022-09-30T11:50:51.263Z,0.75
2022-09-30T11:53:24.513Z,1.33
2022-09-30T11:55:58.629Z,1.30
2022-09-30T11:58:41.067Z,1.05
2022-09-30T12:01:15.844Z,1.80
2022-09-30T12:03:47.068Z,1.17
2022-09-30T12:06:16.336Z,2.03
2022-09-30T12:08:48.150Z,2.15
2022-09-30T12:11:17.602Z,1.92
2022-09-30T12:13:49.663Z,2.33
2022-09-30T12:16:19.580Z,1.42
2022-09-30T12:18:52.372Z,2.05
2022-09-30T12:21:23.323Z,1.85
2022-09-30T12:23:55.828Z,2.05
2022-09-30T12:26:23.475Z,2.53
2022-09-30T12:29:10.811Z,1.92
2022-09-30T12:31:52.644Z,1.20
2022-09-30T12:34:31.802Z,3.03
2022-09-30T12:37:07.510Z,2.80
2022-09-30T12:39:56.043Z,2.50
2022-09-30T12:42:29.421Z,1.67
2022-09-30T12:45:20.091Z,1.88
2022-09-30T12:47:49.650Z,1.95
2022-09-30T12:50:21.467Z,0.80
2022-09-30T12:52:49.538Z,0.75
2022-09-30T12:55:22.346Z,1.67
2022-09-30T12:57:50.688Z,0.60
2022-09-30T13:00:19.250Z,0.52
2022-09-30T13:02:48.717Z,0.60
2022-09-30T13:05:35.002Z,1.13
2022-09-30T13:08:25.434Z,0.93
2022-09-30T13:10:57.921Z,0.63
2022-09-30T13:13:26.562Z,1.60
2022-09-30T13:15:56.165Z,1.80
2022-09-30T13:18:42.627Z,2.40
2022-09-30T13:21:23.990Z,1.80
2022-09-30T13:23:53.377Z,1.30
2022-09-30T13:26:41.217Z,1.85
2022-09-30T13:29:28.133Z,0.95
2022-09-30T13:32:05.815Z,1.63
2022-09-30T13:34:34.309Z,2.08
2022-09-30T13:37:02.440Z,0.80
2022-09-30T13:39:32.571Z,2.35
2022-09-30T13:42:05.748Z,1.13
2022-09-30T13:44:35.586Z,1.73
2022-09-30T13:47:08.186Z,1.10
2022-09-30T13:49:40.874Z,2.28
2022-09-30T13:52:11.388Z,2.25
2022-09-30T13:54:47.466Z,0.32
2022-09-30T13:57:18.914Z,0.60
2022-09-30T13:59:54.333Z,1.65
2022-09-30T14:02:43.189Z,1.30
2022-09-30T14:05:27.714Z,1.30
2022-09-30T14:08:04.813Z,2.13
2022-09-30T14:10:41.645Z,1.48
2022-09-30T14:13:20.053Z,1.70
2022-09-30T14:15:57.196Z,0.80
2022-09-30T14:18:38.850Z,0.52
2022-09-30T14:21:16.642Z,0.32
2022-09-30T14:23:44.869Z,1.23
2022-09-30T14:26:23.089Z,0.65
2022-09-30T14:28:54.565Z,0.52
2022-09-30T14:31:22.187Z,0.75
2022-09-30T14:33:52.000Z,1.35
2022-09-30T14:36:21.795Z,0.75
2022-09-30T14:38:50.800Z,0.82
2022-09-30T14:41:21.189Z,1.67
2022-09-30T14:43:52.845Z,0.20
2022-09-30T14:46:26.759Z,0.20
2022-09-30T14:48:55.426Z,0.90
2022-09-30T14:51:24.054Z,1.27
2022-09-30T14:53:55.580Z,1.30
2022-09-30T14:56:30.574Z,1.08
2022-09-30T14:58:59.755Z,1.42
2022-09-30T15:01:30.315Z,0.95
2022-09-30T15:03:59.539Z,1.10
2022-09-30T15:06:29.271Z,0.50
2022-09-30T15:09:01.724Z,0.40
2022-09-30T15:11:33.088Z,0.80
2022-09-30T15:14:05.429Z,0.20
2022-09-30T15:16:33.752Z,0.55
2022-09-30T15:19:02.468Z,1.08
2022-09-30T15:21:32.331Z,1.05
2022-09-30T15:24:00.697Z,1.48
2022-09-30T15:26:28.653Z,1.00
2022-09-30T15:28:57.627Z,0.30
2022-09-30T15:31:27.244Z,1.48
2022-09-30T15:34:02.327Z,0.90
2022-09-30T15:36:30.337Z,1.30
2022-09-30T15:38:58.229Z,0.60
2022-09-30T15:41:26.427Z,1.20
2022-09-30T15:43:54.485Z,1.60
2022-09-30T15:46:28.056Z,1.20
2022-09-30T15:48:57.053Z,0.47
2022-09-30T15:51:32.572Z,0.55
2022-09-30T15:54:01.393Z,0.70
2022-09-30T15:56:36.219Z,0.30
2022-09-30T15:59:05.665Z,1.02
2022-09-30T16:01:35.566Z,1.75
2022-09-30T16:04:05.361Z,0.55
2022-09-30T16:06:38.735Z,1.35
2022-09-30T16:09:08.497Z,1.05
2022-09-30T16:11:37.441Z,0.50
2022-09-30T16:14:06.762Z,0.60
2022-09-30T16:16:36.606Z,1.25
2022-09-30T16:19:05.009Z,1.40
2022-09-30T16:21:44.166Z,0.90
2022-09-30T16:24:32.215Z,0.60
2022-09-30T16:27:01.736Z,1.30
2022-09-30T16:29:29.813Z,0.75
2022-09-30T16:31:59.237Z,0.90
2022-09-30T16:34:27.452Z,0.93
2022-09-30T16:36:55.807Z,1.38
2022-09-30T16:39:23.369Z,1.15
2022-09-30T16:41:51.330Z,1.20
2022-09-30T16:44:18.942Z,1.33
2022-09-30T16:46:46.574Z,0.38
2022-09-30T16:49:16.158Z,1.55
2022-09-30T16:51:43.730Z,1.10
2022-09-30T16:54:11.645Z,0.82
2022-09-30T16:56:39.500Z,1.10
2022-09-30T16:59:08.147Z,1.17
2022-09-30T17:01:35.756Z,1.00
2022-09-30T17:04:03.550Z,1.17
2022-09-30T17:06:33.438Z,1.30
2022-09-30T17:09:02.034Z,1.42
2022-09-30T17:11:31.185Z,1.20
2022-09-30T17:13:58.829Z,0.70
2022-09-30T17:16:26.631Z,1.10
2022-09-30T17:18:54.241Z,1.10
2022-09-30T17:21:22.696Z,1.00
2022-09-30T17:23:51.882Z,1.40
2022-09-30T17:26:19.515Z,1.20
2022-09-30T17:28:47.472Z,1.33
2022-09-30T17:31:15.219Z,1.10
2022-09-30T17:33:43.192Z,1.40
2022-09-30T17:36:11.392Z,1.35
2022-09-30T17:38:39.448Z,2.08
2022-09-30T17:41:22.434Z,1.65
2022-09-30T17:43:50.076Z,1.92
2022-09-30T17:46:21.267Z,1.90
2022-09-30T17:48:49.600Z,1.50
2022-09-30T17:51:17.445Z,1.80
2022-09-30T17:53:45.120Z,0.95
2022-09-30T17:56:19.426Z,1.95
2022-09-30T17:58:48.801Z,1.17
2022-09-30T18:01:17.499Z,1.45
2022-09-30T18:03:46.095Z,1.67
2022-09-30T18:06:14.470Z,1.60
2022-09-30T18:08:42.117Z,1.60
2022-09-30T18:11:10.009Z,1.27
2022-09-30T18:13:38.920Z,1.38
2022-09-30T18:16:06.943Z,2.60
2022-09-30T18:18:34.961Z,1.55
2022-09-30T18:21:02.680Z,1.58
2022-09-30T18:23:30.366Z,1.90
2022-09-30T18:25:58.438Z,2.08
2022-09-30T18:28:26.359Z,1.35
2022-09-30T18:30:55.298Z,1.00
2022-09-30T18:33:22.993Z,0.30
2022-09-30T18:35:51.416Z,1.17
2022-09-30T18:38:19.611Z,0.90
2022-09-30T18:40:47.205Z,1.25
2022-09-30T18:43:15.401Z,1.60
2022-09-30T18:45:43.859Z,1.90
2022-09-30T18:48:12.985Z,2.10
2022-09-30T18:50:41.029Z,0.70
2022-09-30T18:53:10.171Z,0.68
2022-09-30T18:55:38.510Z,1.40
2022-09-30T18:58:06.208Z,1.40
2022-09-30T19:00:33.988Z,1.52
2022-09-30T19:03:01.656Z,1.17
2022-09-30T19:05:30.723Z,1.75
2022-09-30T19:07:58.327Z,1.55
2022-09-30T19:10:26.327Z,1.73
2022-09-30T19:12:53.886Z,1.42
2022-09-30T19:15:23.564Z,1.80
2022-09-30T19:17:53.040Z,0.47
2022-09-30T19:20:20.625Z,0.30
2022-09-30T19:22:51.889Z,0.75
2022-09-30T19:25:19.591Z,0.68
2022-09-30T19:27:49.467Z,0.70
2022-09-30T19:30:17.117Z,0.60
2022-09-30T19:32:44.672Z,0.28
2022-09-30T19:35:13.491Z,1.42
2022-09-30T19:37:57.012Z,1.25
2022-09-30T19:43:04.618Z,1.80
2022-09-30T19:45:32.463Z,0.98
2022-09-30T19:48:00.160Z,1.73
2022-09-30T19:50:28.260Z,1.70
2022-09-30T19:52:57.794Z,1.52
2022-09-30T19:55:25.760Z,1.63
2022-09-30T19:57:54.821Z,1.27
2022-09-30T20:00:22.412Z,0.65
2022-09-30T20:02:50.524Z,2.28
2022-09-30T20:05:18.425Z,1.10
2022-09-30T20:07:45.983Z,1.58
2022-09-30T20:10:13.755Z,1.35
2022-09-30T20:12:42.713Z,1.10
2022-09-30T20:15:29.385Z,0.57
2022-09-30T20:17:57.001Z,1.42
2022-09-30T20:20:37.054Z,0.88
2022-09-30T20:23:05.052Z,1.30
2022-09-30T20:25:32.573Z,0.40
2022-09-30T20:28:00.247Z,0.70
2022-09-30T20:30:29.827Z,0.82
2022-09-30T20:32:57.477Z,1.23
2022-09-30T20:35:25.138Z,0.52
2022-09-30T20:37:54.039Z,0.38
2022-09-30T20:40:21.693Z,0.60
2022-09-30T20:42:49.244Z,0.75
2022-09-30T20:45:18.064Z,1.10
2022-09-30T20:47:47.496Z,0.60
2022-09-30T20:50:34.763Z,0.85
2022-09-30T20:53:03.264Z,0.82
2022-09-30T20:55:30.828Z,0.57
2022-09-30T20:57:58.380Z,0.73
2022-09-30T21:00:25.949Z,1.92
2022-09-30T21:02:57.085Z,0.77
2022-09-30T21:05:24.657Z,1.13
2022-09-30T21:07:52.317Z,0.70
2022-09-30T21:10:19.877Z,0.65
2022-09-30T21:12:48.494Z,1.25
2022-09-30T21:15:16.425Z,0.90
2022-09-30T21:17:45.397Z,0.80
2022-09-30T21:20:14.505Z,0.70
2022-09-30T21:22:42.926Z,0.60
2022-09-30T21:25:11.141Z,0.52
2022-09-30T21:27:38.777Z,1.13
2022-09-30T21:30:07.053Z,0.63
2022-09-30T21:32:34.834Z,0.60
2022-09-30T21:35:02.428Z,0.93
2022-09-30T21:37:31.383Z,0.98
2022-09-30T21:39:58.954Z,0.35
2022-09-30T21:42:26.576Z,0.77
2022-09-30T21:44:54.294Z,0.50
2022-09-30T21:47:21.888Z,0.88
2022-09-30T21:49:49.683Z,0.52
2022-09-30T21:52:17.273Z,1.65
2022-09-30T21:54:46.183Z,0.77
2022-09-30T21:57:13.730Z,0.70
2022-09-30T21:59:44.682Z,1.38
2022-09-30T22:02:15.730Z,0.52
2022-09-30T22:04:43.313Z,1.38
2022-09-30T22:07:10.922Z,1.52
2022-09-30T22:09:39.580Z,1.90
2022-09-30T22:12:09.302Z,0.90
2022-09-30T22:14:37.521Z,0.50
2022-09-30T22:17:09.877Z,1.88
2022-09-30T22:19:38.850Z,0.80
2022-09-30T22:22:06.504Z,0.50
2022-09-30T22:24:36.811Z,1.25
2022-09-30T22:27:05.371Z,0.32
2022-09-30T22:29:34.460Z,0.60
2022-09-30T22:32:02.822Z,0.60
2022-09-30T22:34:47.916Z,0.40
2022-09-30T22:37:33.017Z,0.43
2022-09-30T22:40:01.185Z,0.68
2022-09-30T22:42:29.232Z,0.55
2022-09-30T22:44:58.185Z,0.68
2022-09-30T22:47:25.730Z,0.50
2022-09-30T22:49:53.305Z,0.98
2022-09-30T22:52:20.844Z,0.82
2022-09-30T22:54:48.389Z,0.43
2022-09-30T22:57:16.216Z,0.93
2022-09-30T22:59:44.599Z,0.40
2022-09-30T23:02:14.951Z,0.82
2022-09-30T23:04:43.304Z,0.32
2022-09-30T23:07:11.167Z,0.30
2022-09-30T23:09:38.793Z,0.93
2022-09-30T23:12:06.337Z,0.60
2022-09-30T23:14:33.918Z,0.30
2022-09-30T23:17:01.477Z,0.63
2022-09-30T23:19:30.392Z,0.75
2022-09-30T23:21:57.989Z,1.08
2022-09-30T23:24:25.629Z,0.60
2022-09-30T23:26:53.218Z,0.40
2022-09-30T23:29:20.773Z,1.08
2022-09-30T23:31:48.918Z,0.50
2022-09-30T23:34:17.236Z,0.63
2022-09-30T23:36:46.834Z,0.80
2022-09-30T23:39:18.234Z,0.80
2022-09-30T23:41:46.758Z,0.80
2022-09-30T23:44:17.811Z,0.65
2022-09-30T23:47:05.501Z,0.85
2022-09-30T23:49:35.629Z,0.73
2022-09-30T23:52:06.959Z,0.52
2022-09-30T23:54:36.993Z,0.80
2022-09-30T23:57:04.628Z,0.77
2022-09-30T23:59:33.007Z,0.55
